Time;durP1;ratioP1;P1;durP2;ratioP2;P2;SDS_P1;SDS_P2;PMS_P1;PMS_P2;Temp;Humidity;BMP_temperature;BMP_pressure;BME280_temperature;BME280_humidity;BME280_pressure;Samples;Min_cycle;Max_cycle;Signal;HPM_P1;HPM_P2
2021/12/23 00:02:07;;;;;;;24.07;12.03;;;;;-4.00;96569.00;;;;8331358;28;20693;-65
2021/12/23 00:06:43;;;;;;;21.80;10.77;;;;;-3.90;96559.00;;;;8363691;28;20229;-65
2021/12/23 00:10:47;;;;;;;28.53;12.27;;;;;-3.90;96545.00;;;;8332260;28;20248;-65
2021/12/23 00:15:29;;;;;;;31.17;11.83;;;;;-3.90;96550.00;;;;8330836;28;20264;-65
2021/12/23 00:19:47;;;;;;;23.37;10.83;;;;;-3.80;96552.00;;;;8364067;28;20213;-65
2021/12/23 00:23:49;;;;;;;23.33;10.77;;;;;-3.70;96545.00;;;;8332806;28;20224;-65
2021/12/23 00:28:26;;;;;;;28.70;11.80;;;;;-3.60;96550.00;;;;8329544;28;20253;-65
2021/12/23 00:33:03;;;;;;;23.13;11.27;;;;;-3.50;96548.00;;;;8329998;28;20244;-66
2021/12/23 00:37:10;;;;;;;28.00;11.53;;;;;-3.50;96531.00;;;;8363173;28;20221;-66
2021/12/23 00:41:13;;;;;;;27.13;11.50;;;;;-3.50;96531.00;;;;8363590;28;20228;-66
2021/12/23 00:45:17;;;;;;;24.30;12.23;;;;;-3.40;96530.00;;;;8362989;28;20246;-66
2021/12/23 00:49:20;;;;;;;24.07;11.57;;;;;-3.40;96530.00;;;;8362626;28;20239;-65
2021/12/23 00:53:26;;;;;;;27.50;12.67;;;;;-3.40;96530.00;;;;8362447;28;20237;-66
2021/12/23 00:57:30;;;;;;;26.73;10.87;;;;;-3.40;96532.00;;;;8361721;28;20228;-65
2021/12/23 01:02:08;;;;;;;22.87;10.30;;;;;-3.40;96524.00;;;;8362879;28;20574;-66
2021/12/23 01:06:12;;;;;;;26.47;10.80;;;;;-3.40;96523.00;;;;8333059;28;20320;-66
2021/12/23 01:10:18;;;;;;;27.80;12.10;;;;;-3.40;96531.00;;;;8328892;28;20232;-66
2021/12/23 01:14:57;;;;;;;27.07;11.97;;;;;-3.50;96520.00;;;;8330235;28;20251;-66
2021/12/23 01:19:03;;;;;;;23.57;10.60;;;;;-3.50;96530.00;;;;8361515;28;20252;-66
2021/12/23 01:23:41;;;;;;;25.07;11.33;;;;;-3.40;96520.00;;;;8361595;28;20273;-66
2021/12/23 01:27:45;;;;;;;23.77;10.53;;;;;-3.40;96514.00;;;;8330212;28;20221;-66
2021/12/23 01:32:20;;;;;;;26.47;11.97;;;;;-3.40;96523.00;;;;8328435;28;20740;-66
2021/12/23 01:36:24;;;;;;;22.00;10.97;;;;;-3.30;96514.00;;;;8360856;28;20219;-65
2021/12/23 01:40:58;;;;;;;23.50;11.73;;;;;-3.20;96507.00;;;;8362177;28;20268;-66
2021/12/23 01:45:03;;;;;;;30.30;12.27;;;;;-3.10;96516.00;;;;8329844;28;20252;-66
2021/12/23 01:49:06;;;;;;;24.50;11.50;;;;;-3.10;96522.00;;;;8327996;28;20252;-66
2021/12/23 01:53:41;;;;;;;26.47;11.83;;;;;-3.00;96521.00;;;;8328559;28;20235;-66
2021/12/23 01:57:45;;;;;;;21.77;11.20;;;;;-3.00;96514.00;;;;8360596;28;20227;-66
2021/12/23 02:01:50;;;;;;;24.17;11.40;;;;;-2.90;96505.00;;;;8361780;28;20259;-66
2021/12/23 02:06:26;;;;;;;23.80;10.93;;;;;-2.90;96507.00;;;;8360848;28;20569;-66
2021/12/23 02:10:30;;;;;;;23.33;10.93;;;;;-2.90;96499.00;;;;8327723;28;20221;-66
2021/12/23 02:14:33;;;;;;;25.10;11.43;;;;;-3.00;96501.00;;;;8328251;28;20245;-66
2021/12/23 02:18:38;;;;;;;26.30;11.50;;;;;-2.90;96490.00;;;;8333290;28;20221;-66
2021/12/23 02:22:44;;;;;;;26.60;11.30;;;;;-2.90;96477.00;;;;8327689;28;20249;-65
2021/12/23 02:26:47;;;;;;;26.13;11.10;;;;;-3.00;96473.00;;;;8328181;28;20232;-65
2021/12/23 02:31:24;;;;;;;23.83;11.57;;;;;-3.00;96474.00;;;;8327306;28;20233;-66
2021/12/23 02:36:00;;;;;;;25.43;11.33;;;;;-3.00;96472.00;;;;8327979;28;20239;-66
2021/12/23 02:40:06;;;;;;;25.40;11.27;;;;;-3.10;96459.00;;;;8360758;28;20227;-65
2021/12/23 02:44:40;;;;;;;27.07;11.30;;;;;-3.10;96466.00;;;;8360251;28;20258;-66
2021/12/23 02:48:43;;;;;;;24.77;10.83;;;;;-3.20;96457.00;;;;8359932;28;20632;-66
2021/12/23 02:52:47;;;;;;;24.53;11.00;;;;;-3.20;96452.00;;;;8366997;28;20224;-66
2021/12/23 02:57:24;;;;;;;28.80;11.00;;;;;-3.20;96450.00;;;;8366038;28;20254;-66
2021/12/23 03:01:29;;;;;;;25.83;10.60;;;;;-3.30;96442.00;;;;8374304;22;20224;-67
2021/12/23 03:05:33;;;;;;;32.90;11.73;;;;;-3.30;96437.00;;;;8309860;28;20237;-67
2021/12/23 03:09:36;;;;;;;30.93;11.07;;;;;-3.40;96448.00;;;;8292782;28;20283;-66
2021/12/23 03:13:40;;;;;;;26.00;11.23;;;;;-3.50;96445.00;;;;8311435;28;20246;-67
2021/12/23 03:17:45;;;;;;;27.43;10.87;;;;;-3.50;96433.00;;;;8331686;28;20741;-67
2021/12/23 03:21:48;;;;;;;28.70;11.03;;;;;-3.60;96422.00;;;;8351773;28;20330;-67
2021/12/23 03:25:52;;;;;;;29.20;11.67;;;;;-3.60;96408.00;;;;8343135;28;20274;-67
2021/12/23 03:29:58;;;;;;;29.70;12.10;;;;;-3.50;96390.00;;;;8352655;28;20307;-67
2021/12/23 03:34:03;;;;;;;29.87;12.43;;;;;-3.50;96382.00;;;;8350774;28;20251;-66
2021/12/23 03:38:07;;;;;;;28.17;11.87;;;;;-3.40;96368.00;;;;8343557;28;20268;-67
2021/12/23 03:42:10;;;;;;;28.80;12.50;;;;;-3.30;96362.00;;;;8348927;28;20985;-66
2021/12/23 03:46:13;;;;;;;28.33;12.63;;;;;-3.20;96376.00;;;;8337781;28;20252;-67
2021/12/23 03:50:20;;;;;;;23.50;11.80;;;;;-3.20;96350.00;;;;8333978;28;20239;-67
2021/12/23 03:54:23;;;;;;;31.83;13.23;;;;;-3.10;96358.00;;;;8345188;28;20255;-67
2021/12/23 03:58:26;;;;;;;30.77;11.27;;;;;-3.10;96350.00;;;;8328180;28;20678;-67
2021/12/23 04:02:29;;;;;;;24.03;11.27;;;;;-3.10;96353.00;;;;8323015;28;20267;-66
2021/12/23 04:06:34;;;;;;;26.67;11.80;;;;;-3.10;96348.00;;;;8347040;28;20964;-66
2021/12/23 04:10:37;;;;;;;30.37;12.73;;;;;-3.10;96342.00;;;;8344406;28;20244;-66
2021/12/23 04:14:41;;;;;;;27.53;12.13;;;;;-3.10;96334.00;;;;8340327;28;20220;-66
2021/12/23 04:18:46;;;;;;;28.17;12.00;;;;;-3.20;96337.00;;;;8339994;28;20838;-66
2021/12/23 04:22:53;;;;;;;27.40;11.47;;;;;-3.10;96336.00;;;;8349745;28;20263;-67
2021/12/23 04:26:56;;;;;;;34.20;12.67;;;;;-3.10;96315.00;;;;8351740;28;20265;-67
2021/12/23 04:30:59;;;;;;;34.13;13.23;;;;;-3.10;96314.00;;;;8333757;28;20333;-67
2021/12/23 04:35:03;;;;;;;25.20;12.37;;;;;-3.10;96315.00;;;;8321281;28;20228;-67
2021/12/23 04:39:08;;;;;;;32.57;13.40;;;;;-3.10;96306.00;;;;8347450;28;20255;-67
2021/12/23 04:43:11;;;;;;;28.23;13.00;;;;;-3.00;96299.00;;;;8350796;28;20562;-67
2021/12/23 04:47:15;;;;;;;31.33;13.50;;;;;-3.00;96294.00;;;;8349541;28;20254;-67
2021/12/23 04:51:19;;;;;;;32.17;13.33;;;;;-2.90;96291.00;;;;8350041;28;20252;-67
2021/12/23 04:55:23;;;;;;;37.33;12.50;;;;;-2.90;96282.00;;;;8351013;28;20315;-67
2021/12/23 04:59:27;;;;;;;25.33;12.07;;;;;-3.00;96285.00;;;;8345253;28;20270;-67
2021/12/23 05:03:30;;;;;;;25.57;12.53;;;;;-3.00;96300.00;;;;8347560;28;20266;-66
2021/12/23 05:07:33;;;;;;;26.40;12.03;;;;;-2.90;96293.00;;;;8344386;28;20612;-67
2021/12/23 05:11:38;;;;;;;33.20;12.57;;;;;-3.00;96292.00;;;;8342735;28;20647;-67
2021/12/23 05:15:41;;;;;;;26.90;12.30;;;;;-3.00;96299.00;;;;8346886;28;20263;-68
2021/12/23 05:19:44;;;;;;;25.33;12.07;;;;;-3.00;96290.00;;;;8348595;28;20313;-68
2021/12/23 05:23:49;;;;;;;26.27;12.23;;;;;-3.00;96285.00;;;;8338231;28;20225;-66
2021/12/23 05:27:54;;;;;;;30.67;13.77;;;;;-3.10;96266.00;;;;8343578;28;20240;-66
2021/12/23 05:31:58;;;;;;;33.27;14.53;;;;;-3.10;96266.00;;;;8339030;28;20323;-66
2021/12/23 05:36:01;;;;;;;26.77;12.77;;;;;-3.10;96270.00;;;;8347203;28;20223;-66
2021/12/23 05:40:06;;;;;;;29.83;12.77;;;;;-3.10;96268.00;;;;8348315;28;20230;-66
2021/12/23 05:44:13;;;;;;;29.13;12.97;;;;;-3.20;96267.00;;;;8346031;28;20264;-67
2021/12/23 05:48:17;;;;;;;24.13;11.87;;;;;-3.20;96268.00;;;;8309272;28;20287;-67
2021/12/23 05:52:20;;;;;;;29.90;12.50;;;;;-3.30;96267.00;;;;8309242;28;20253;-67
2021/12/23 05:56:23;;;;;;;27.63;12.40;;;;;-3.40;96264.00;;;;8305285;28;20222;-66
2021/12/23 06:00:30;;;;;;;29.80;12.60;;;;;-3.50;96266.00;;;;8298065;28;20312;-67
2021/12/23 06:04:34;;;;;;;30.73;12.47;;;;;-3.50;96254.00;;;;8321326;28;20335;-66
2021/12/23 06:08:37;;;;;;;33.73;15.73;;;;;-3.50;96250.00;;;;8322847;28;20255;-66
2021/12/23 06:12:41;;;;;;;38.80;14.67;;;;;-3.60;96248.00;;;;8330772;28;20705;-67
2021/12/23 06:16:46;;;;;;;32.10;12.30;;;;;-3.70;96234.00;;;;8345540;28;20695;-68
2021/12/23 06:20:49;;;;;;;29.93;12.27;;;;;-3.80;96230.00;;;;8308200;28;20258;-66
2021/12/23 06:24:53;;;;;;;25.93;11.87;;;;;-3.90;96215.00;;;;8305385;28;20231;-66
2021/12/23 06:29:00;;;;;;;28.57;12.37;;;;;-3.90;96213.00;;;;8348091;28;20317;-66
2021/12/23 06:33:04;;;;;;;36.60;13.93;;;;;-3.80;96218.00;;;;8340081;28;20323;-67
2021/12/23 06:37:09;;;;;;;33.43;13.70;;;;;-3.70;96198.00;;;;8346185;28;20419;-67
2021/12/23 06:41:15;;;;;;;30.70;14.17;;;;;-3.60;96208.00;;;;8345114;28;20220;-66
2021/12/23 06:45:19;;;;;;;31.10;12.83;;;;;-3.40;96234.00;;;;8338697;28;20715;-66
2021/12/23 06:49:23;;;;;;;32.20;13.83;;;;;-3.30;96242.00;;;;8346056;28;20255;-67
2021/12/23 06:53:28;;;;;;;33.07;15.07;;;;;-3.20;96242.00;;;;8339003;28;20235;-66
2021/12/23 06:57:31;;;;;;;27.90;13.13;;;;;-3.00;96227.00;;;;8342039;28;20275;-66
2021/12/23 07:01:35;;;;;;;36.83;13.90;;;;;-2.90;96214.00;;;;8343972;28;20239;-69
2021/12/23 07:05:41;;;;;;;31.10;14.10;;;;;-2.90;96207.00;;;;8332271;28;20228;-69
2021/12/23 07:09:45;;;;;;;33.60;14.87;;;;;-2.80;96216.00;;;;8333005;28;20737;-70
2021/12/23 07:13:49;;;;;;;38.67;15.77;;;;;-2.80;96248.00;;;;8334994;28;20347;-69
2021/12/23 07:17:53;;;;;;;40.33;15.37;;;;;-2.80;96239.00;;;;8340837;28;20855;-71
2021/12/23 07:21:57;;;;;;;40.77;16.93;;;;;-2.70;96250.00;;;;8344696;28;20262;-70
2021/12/23 07:26:00;;;;;;;34.67;13.67;;;;;-2.60;96260.00;;;;8336469;28;20256;-71
2021/12/23 07:30:06;;;;;;;39.03;16.77;;;;;-2.60;96250.00;;;;8340946;28;20240;-71
2021/12/23 07:34:10;;;;;;;32.87;14.60;;;;;-2.50;96248.00;;;;8337710;28;20252;-69
2021/12/23 07:38:14;;;;;;;41.03;15.83;;;;;-2.40;96243.00;;;;8339605;28;20231;-70
2021/12/23 07:42:19;;;;;;;37.67;15.43;;;;;-2.40;96223.00;;;;8307863;28;20257;-69
2021/12/23 07:46:23;;;;;;;46.97;17.87;;;;;-2.40;96219.00;;;;8312938;28;20834;-69
2021/12/23 07:50:26;;;;;;;38.77;14.73;;;;;-2.30;96215.00;;;;8310612;28;20233;-69
2021/12/23 07:54:31;;;;;;;37.87;16.10;;;;;-2.30;96219.00;;;;8349140;28;20244;-71
2021/12/23 07:58:35;;;;;;;246.27;144.20;;;;;-2.20;96235.00;;;;8345090;28;20355;-70
2021/12/23 08:02:38;;;;;;;86.43;39.00;;;;;-2.20;96229.00;;;;8340122;28;20233;-71
2021/12/23 08:06:42;;;;;;;364.73;175.63;;;;;-2.10;96241.00;;;;8342197;28;20290;-72
2021/12/23 08:10:48;;;;;;;815.17;341.97;;;;;-2.00;96245.00;;;;8332390;28;20233;-72
2021/12/23 08:14:54;;;;;;;109.93;54.07;;;;;-2.00;96228.00;;;;8334817;28;20228;-70
2021/12/23 08:19:12;;;;;;;84.43;40.67;;;;;-2.00;96227.00;;;;8336002;28;20247;-72
2021/12/23 08:23:16;;;;;;;73.83;31.70;;;;;-1.90;96238.00;;;;8334215;28;20225;-71
2021/12/23 08:27:28;;;;;;;57.03;23.27;;;;;-1.80;96211.00;;;;8335250;28;20276;-72
2021/12/23 08:31:32;;;;;;;89.27;38.07;;;;;-1.70;96207.00;;;;8334768;28;20251;-71
2021/12/23 08:35:36;;;;;;;120.27;46.13;;;;;-1.70;96193.00;;;;8300454;28;20227;-72
2021/12/23 08:39:40;;;;;;;101.57;39.43;;;;;-1.50;96197.00;;;;8314945;28;20249;-70
2021/12/23 08:43:45;;;;;;;64.77;25.57;;;;;-1.50;96190.00;;;;8304868;28;20225;-71
2021/12/23 08:47:48;;;;;;;85.07;32.03;;;;;-1.40;96184.00;;;;8303892;28;20265;-71
2021/12/23 08:51:52;;;;;;;155.83;73.93;;;;;-1.40;96199.00;;;;8326741;28;20775;-71
2021/12/23 08:55:55;;;;;;;85.60;40.60;;;;;-1.30;96199.00;;;;8334645;28;20221;-71
2021/12/23 09:00:00;;;;;;;77.00;35.97;;;;;-1.40;96205.00;;;;8327574;28;20265;-71
2021/12/23 09:04:03;;;;;;;78.83;40.17;;;;;-1.40;96208.00;;;;8335358;28;20278;-70
2021/12/23 09:08:07;;;;;;;60.30;23.63;;;;;-1.30;96208.00;;;;8332269;28;21143;-70
2021/12/23 09:12:53;;;;;;;53.27;20.47;;;;;-1.30;96236.00;;;;8361616;28;20224;-71
2021/12/23 09:17:32;;;;;;;49.63;20.53;;;;;-1.20;96212.00;;;;8360716;28;20220;-72
2021/12/23 09:22:09;;;;;;;59.50;21.07;;;;;-1.30;96222.00;;;;8360765;28;20232;-71
2021/12/23 09:26:50;;;;;;;71.70;33.37;;;;;-1.20;96243.00;;;;8361044;28;20220;-70
2021/12/23 09:35:54;;;;;;;50.13;19.70;;;;;-0.90;96166.00;;;;8327729;28;20225;-70
2021/12/23 09:40:29;;;;;;;49.20;20.13;;;;;-0.80;96221.00;;;;8327594;28;20224;-71
2021/12/23 09:45:04;;;;;;;71.63;29.63;;;;;-0.70;96182.00;;;;8327799;28;20296;-72
2021/12/23 09:49:40;;;;;;;63.93;20.73;;;;;-0.60;96153.00;;;;8326301;28;20244;-69
2021/12/23 09:54:22;;;;;;;55.77;20.13;;;;;-0.50;96166.00;;;;8328258;28;20639;-69
2021/12/23 09:58:57;;;;;;;65.63;23.13;;;;;-0.40;96178.00;;;;8329095;28;20221;-70
2021/12/23 10:03:32;;;;;;;77.10;25.87;;;;;-0.20;96191.00;;;;8367109;28;20224;-70
2021/12/23 10:08:08;;;;;;;74.47;24.33;;;;;-0.20;96195.00;;;;8367920;28;20232;-70
2021/12/23 10:31:29;;;;;;;71.53;22.33;;;;;0.20;96145.00;;;;8295880;28;20237;-69
2021/12/23 10:40:30;;;;;;;76.10;23.20;;;;;0.10;96111.00;;;;8365974;28;20240;-71
2021/12/23 10:45:09;;;;;;;65.10;20.17;;;;;0.10;96110.00;;;;8366825;28;20217;-71
2021/12/23 10:49:51;;;;;;;86.73;25.93;;;;;0.10;96107.00;;;;8332691;28;20340;-71
2021/12/23 10:59:10;;;;;;;72.67;22.90;;;;;0.20;96096.00;;;;8332894;28;20243;-71
2021/12/23 11:03:43;;;;;;;77.87;24.27;;;;;0.30;96089.00;;;;8332919;28;20233;-70
2021/12/23 11:08:26;;;;;;;68.23;21.27;;;;;0.30;96087.00;;;;8332324;28;20251;-70
2021/12/23 11:43:01;;;;;;;75.93;21.77;;;;;0.30;96043.00;;;;8364196;28;20221;-65
2021/12/23 11:47:24;;;;;;;91.70;27.07;;;;;0.30;96053.00;;;;8364117;28;20224;-65
2021/12/23 11:52:03;;;;;;;82.73;25.20;;;;;0.50;96044.00;;;;8331769;28;20221;-65
2021/12/23 11:56:39;;;;;;;73.43;22.87;;;;;0.50;96028.00;;;;8331264;28;20224;-65
2021/12/23 12:01:16;;;;;;;70.23;23.43;;;;;0.60;96023.00;;;;8364003;28;20626;-65
2021/12/23 12:05:50;;;;;;;76.80;24.03;;;;;0.70;96013.00;;;;8363594;28;20271;-65
2021/12/23 12:10:27;;;;;;;79.83;23.67;;;;;1.00;96014.00;;;;8364495;28;20222;-65
2021/12/23 12:15:05;;;;;;;78.63;24.30;;;;;1.00;95996.00;;;;8363856;28;20223;-65
2021/12/23 12:19:45;;;;;;;66.30;23.37;;;;;1.00;96000.00;;;;8364363;28;20220;-65
2021/12/23 12:24:24;;;;;;;74.40;23.57;;;;;1.00;95994.00;;;;8362688;28;20213;-65
2021/12/23 12:28:59;;;;;;;81.57;25.20;;;;;1.00;95981.00;;;;8363190;28;20617;-65
2021/12/23 12:33:54;;;;;;;71.07;23.00;;;;;1.00;95980.00;;;;8362971;28;20550;-64
2021/12/23 12:38:18;;;;;;;80.93;24.60;;;;;1.10;95981.00;;;;8362267;28;20216;-64
2021/12/23 12:42:50;;;;;;;82.27;24.03;;;;;1.10;95966.00;;;;8362658;28;20227;-64
2021/12/23 12:47:31;;;;;;;88.20;24.90;;;;;1.10;95972.00;;;;8362745;28;20259;-64
2021/12/23 12:52:13;;;;;;;78.40;23.53;;;;;1.10;95961.00;;;;8362759;28;20240;-65
2021/12/23 12:56:51;;;;;;;91.30;25.40;;;;;1.20;95975.00;;;;8362331;28;20218;-68
2021/12/23 13:01:33;;;;;;;77.03;24.70;;;;;1.30;95976.00;;;;8362805;28;20240;-69
2021/12/23 13:06:02;;;;;;;84.77;25.67;;;;;1.20;95974.00;;;;8361647;28;20213;-69
2021/12/23 13:10:41;;;;;;;76.23;24.93;;;;;1.20;95966.00;;;;8361843;28;20231;-68
2021/12/23 13:15:17;;;;;;;82.23;25.33;;;;;1.10;95960.00;;;;8361796;28;20236;-68
2021/12/23 13:19:52;;;;;;;99.87;27.77;;;;;1.00;95955.00;;;;8361697;28;20228;-69
2021/12/23 13:24:29;;;;;;;93.47;26.17;;;;;0.90;95943.00;;;;8361396;28;20220;-68
2021/12/23 13:29:04;;;;;;;77.20;24.83;;;;;0.90;95940.00;;;;8361648;28;20208;-68
2021/12/23 13:33:43;;;;;;;85.10;25.27;;;;;0.90;95950.00;;;;8360849;28;20220;-68
2021/12/23 13:38:24;;;;;;;75.00;24.23;;;;;0.80;95959.00;;;;8361231;28;20251;-68
2021/12/23 13:43:02;;;;;;;87.10;25.70;;;;;0.90;95944.00;;;;8359751;28;20278;-68
2021/12/23 13:47:34;;;;;;;84.30;25.97;;;;;0.80;95932.00;;;;8327312;28;20635;-68
2021/12/23 13:52:20;;;;;;;75.80;23.43;;;;;0.80;95933.00;;;;8328410;28;20670;-67
2021/12/23 13:56:51;;;;;;;88.67;25.00;;;;;0.80;95927.00;;;;8328162;28;20228;-68
2021/12/23 14:01:27;;;;;;;85.33;22.67;;;;;0.80;95922.00;;;;8360829;28;20240;-69
2021/12/23 14:06:02;;;;;;;75.83;22.67;;;;;0.80;95916.00;;;;8361264;28;20221;-68
2021/12/23 14:10:38;;;;;;;81.23;26.30;;;;;0.80;95918.00;;;;8360555;28;20553;-69
2021/12/23 14:15:12;;;;;;;91.10;26.73;;;;;0.90;95922.00;;;;8361026;28;20553;-68
2021/12/23 14:23:11;;;;;;;80.13;25.43;;;;;0.90;95921.00;;;;8360876;28;20229;-68
2021/12/23 14:24:22;;;;;;;66.50;20.47;;;;;0.90;95922.00;;;;8360473;28;20255;-69
2021/12/23 14:28:56;;;;;;;82.07;24.13;;;;;0.80;95920.00;;;;8360645;28;20222;-69
2021/12/23 14:33:36;;;;;;;70.00;21.67;;;;;0.80;95921.00;;;;8359972;28;20303;-68
2021/12/23 14:38:10;;;;;;;72.67;22.63;;;;;0.90;95915.00;;;;8361205;28;20224;-68
2021/12/23 14:42:56;;;;;;;77.20;23.80;;;;;0.90;95922.00;;;;8327577;28;20222;-68
2021/12/23 14:47:24;;;;;;;80.47;26.47;;;;;0.90;95915.00;;;;8327885;28;20221;-68
2021/12/23 14:52:11;;;;;;;78.27;23.67;;;;;1.00;95911.00;;;;8333229;28;20217;-69
2021/12/23 14:56:38;;;;;;;80.47;22.83;;;;;0.90;95899.00;;;;8365869;28;20227;-69
2021/12/23 15:06:13;;;;;;;76.03;23.77;;;;;0.90;95901.00;;;;8332917;28;20225;-69
2021/12/23 15:10:27;;;;;;;71.17;24.67;;;;;1.00;95894.00;;;;8331512;28;20236;-69
2021/12/23 15:14:54;;;;;;;80.00;25.27;;;;;1.00;95894.00;;;;8332834;28;20221;-69
2021/12/23 15:19:36;;;;;;;81.07;27.17;;;;;1.00;95883.00;;;;8332556;28;20622;-69
2021/12/23 15:23:43;;;;;;;77.47;24.27;;;;;1.10;95873.00;;;;8332316;28;20228;-68
2021/12/23 15:28:16;;;;;;;74.37;24.70;;;;;1.00;95866.00;;;;8332643;28;20225;-70
2021/12/23 15:32:55;;;;;;;65.50;23.40;;;;;1.00;95857.00;;;;8331426;28;20670;-70
2021/12/23 15:37:00;;;;;;;66.83;22.73;;;;;1.00;95860.00;;;;8332043;28;20221;-69
2021/12/23 15:41:34;;;;;;;71.87;24.90;;;;;1.10;95866.00;;;;8331125;28;20236;-69
2021/12/23 15:46:14;;;;;;;65.53;23.93;;;;;1.10;95853.00;;;;8331562;28;20255;-69
2021/12/23 15:50:54;;;;;;;76.33;27.07;;;;;1.10;95847.00;;;;8363342;28;20213;-70
2021/12/23 15:55:27;;;;;;;73.43;23.70;;;;;1.10;95846.00;;;;8364564;28;20613;-70
2021/12/23 16:00:06;;;;;;;62.77;21.87;;;;;1.10;95835.00;;;;8364283;28;20625;-70
2021/12/23 16:04:13;;;;;;;71.63;24.37;;;;;1.20;95840.00;;;;8364480;28;20552;-70
2021/12/23 16:13:49;;;;;;;68.30;23.80;;;;;1.20;95816.00;;;;8363621;28;20232;-69
2021/12/23 16:18:23;;;;;;;67.23;22.77;;;;;1.30;95814.00;;;;8330937;28;20547;-67
2021/12/23 16:23:00;;;;;;;66.77;22.90;;;;;1.30;95794.00;;;;8329793;28;20221;-67
2021/12/23 16:27:38;;;;;;;57.37;22.40;;;;;1.40;95798.00;;;;8330769;28;20697;-67
2021/12/23 16:32:13;;;;;;;66.17;23.03;;;;;1.50;95799.00;;;;8328253;28;20256;-67
2021/12/23 16:36:47;;;;;;;61.57;21.20;;;;;1.50;95805.00;;;;8328683;28;20218;-68
2021/12/23 16:41:25;;;;;;;57.30;21.20;;;;;1.60;95794.00;;;;8329706;28;20264;-68
2021/12/23 16:45:30;;;;;;;58.70;21.57;;;;;1.60;95796.00;;;;8329801;28;20217;-68
2021/12/23 16:50:07;;;;;;;62.33;23.17;;;;;1.60;95790.00;;;;8329793;28;20270;-68
2021/12/23 16:54:52;;;;;;;65.00;25.23;;;;;1.70;95787.00;;;;8329892;28;20246;-68
2021/12/23 16:58:55;;;;;;;61.20;22.03;;;;;1.70;95764.00;;;;8329233;28;20658;-69
2021/12/23 17:02:58;;;;;;;59.83;20.53;;;;;1.70;95758.00;;;;8329387;28;20229;-68
2021/12/23 17:07:35;;;;;;;55.00;21.63;;;;;1.70;95757.00;;;;8329500;28;20234;-68
2021/12/23 17:12:14;;;;;;;62.80;22.17;;;;;1.80;95747.00;;;;8329226;28;20222;-68
2021/12/23 17:16:51;;;;;;;57.20;20.77;;;;;1.80;95743.00;;;;8328668;28;20255;-68
2021/12/23 17:26:03;;;;;;;58.43;20.57;;;;;1.80;95737.00;;;;8328718;28;20223;-68
2021/12/23 17:30:43;;;;;;;62.00;19.57;;;;;1.80;95732.00;;;;8328552;28;20227;-68
2021/12/23 17:35:18;;;;;;;52.33;20.97;;;;;1.80;95747.00;;;;8328726;28;20567;-68
2021/12/23 17:39:55;;;;;;;58.37;20.70;;;;;1.80;95735.00;;;;8328910;28;20256;-68
2021/12/23 17:43:59;;;;;;;60.27;21.23;;;;;1.80;95737.00;;;;8327563;28;20223;-66
2021/12/23 17:48:04;;;;;;;65.30;23.17;;;;;2.00;95723.00;;;;8329386;28;20238;-67
2021/12/23 17:52:38;;;;;;;66.10;21.10;;;;;2.00;95702.00;;;;8328128;28;20225;-66
2021/12/23 17:56:42;;;;;;;65.63;22.13;;;;;2.00;95697.00;;;;8327863;28;20243;-67
2021/12/23 18:01:19;;;;;;;63.63;23.90;;;;;2.00;95688.00;;;;8327376;28;20694;-66
2021/12/23 18:05:55;;;;;;;79.53;29.60;;;;;2.00;95684.00;;;;8328188;28;20244;-65
2021/12/23 18:10:29;;;;;;;97.33;41.93;;;;;2.00;95676.00;;;;8327751;28;20599;-64
2021/12/23 18:15:06;;;;;;;335.50;133.03;;;;;2.00;95668.00;;;;8328149;28;20219;-64
2021/12/23 18:19:43;;;;;;;95.50;37.40;;;;;2.00;95666.00;;;;8327903;28;20225;-66
2021/12/23 18:24:21;;;;;;;73.87;26.40;;;;;2.00;95646.00;;;;8325978;28;20236;-67
2021/12/23 18:33:23;;;;;;;68.17;24.00;;;;;2.10;95630.00;;;;8333388;28;20226;-66
2021/12/23 18:38:00;;;;;;;64.83;22.57;;;;;2.10;95624.00;;;;8334472;28;20310;-66
2021/12/23 18:42:39;;;;;;;93.33;35.73;;;;;2.20;95611.00;;;;8333571;28;20230;-69
2021/12/23 18:47:10;;;;;;;86.37;31.43;;;;;2.20;95613.00;;;;8333967;28;20304;-69
2021/12/23 18:51:47;;;;;;;75.03;25.43;;;;;2.20;95603.00;;;;8333104;28;20318;-73
2021/12/23 18:56:24;;;;;;;80.30;34.70;;;;;2.30;95605.00;;;;8333726;28;20250;-74
2021/12/23 19:01:07;;;;;;;64.67;24.00;;;;;2.30;95605.00;;;;8365897;28;20666;-70
2021/12/23 19:05:36;;;;;;;55.13;20.27;;;;;2.40;95598.00;;;;8336058;28;20267;-69
2021/12/23 19:10:14;;;;;;;69.30;32.80;;;;;2.40;95599.00;;;;8332552;28;20250;-69
2021/12/23 19:14:51;;;;;;;72.13;29.77;;;;;2.40;95597.00;;;;8332748;28;20327;-69
2021/12/23 19:19:30;;;;;;;63.00;20.40;;;;;2.50;95598.00;;;;8332390;28;20229;-69
2021/12/23 19:24:03;;;;;;;65.57;20.77;;;;;2.50;95595.00;;;;8332351;28;20246;-69
2021/12/23 19:28:08;;;;;;;76.07;22.30;;;;;2.60;95598.00;;;;8332625;28;20249;-70
2021/12/23 19:32:42;;;;;;;68.77;21.07;;;;;2.60;95595.00;;;;8331835;28;20251;-69
2021/12/23 19:37:21;;;;;;;65.30;21.10;;;;;2.60;95598.00;;;;8330050;28;20253;-68
2021/12/23 19:41:54;;;;;;;60.87;19.67;;;;;2.60;95592.00;;;;8332236;28;20705;-69
2021/12/23 19:46:31;;;;;;;67.33;22.00;;;;;2.70;95585.00;;;;8332138;28;20227;-69
2021/12/23 19:50:36;;;;;;;64.40;21.17;;;;;2.70;95588.00;;;;8332511;28;20222;-69
2021/12/23 19:55:13;;;;;;;58.80;20.53;;;;;2.70;95575.00;;;;8330492;28;20232;-70
2021/12/23 19:59:47;;;;;;;68.20;19.90;;;;;2.70;95581.00;;;;8331945;28;20218;-69
2021/12/23 20:04:24;;;;;;;67.57;23.60;;;;;2.70;95567.00;;;;8330919;28;20219;-69
2021/12/23 20:09:01;;;;;;;1260.93;490.17;;;;;2.70;95579.00;;;;8330999;28;20221;-70
2021/12/23 20:13:41;;;;;;;292.20;96.47;;;;;2.70;95578.00;;;;8331592;28;20237;-71
2021/12/23 20:18:15;;;;;;;1999.90;624.57;;;;;2.70;95578.00;;;;8331142;28;20222;-71
2021/12/23 20:22:52;;;;;;;1362.63;510.43;;;;;2.70;95555.00;;;;8330165;28;20229;-71
2021/12/23 20:27:29;;;;;;;1999.90;725.83;;;;;2.70;95555.00;;;;8330787;28;20226;-72
2021/12/23 20:31:37;;;;;;;872.47;296.53;;;;;2.80;95562.00;;;;8330117;28;20252;-72
2021/12/23 20:36:08;;;;;;;1999.90;653.70;;;;;2.80;95546.00;;;;8330479;28;20235;-72
2021/12/23 20:40:45;;;;;;;1999.90;597.27;;;;;2.80;95547.00;;;;8330225;28;20330;-72
2021/12/23 20:45:23;;;;;;;1999.90;767.00;;;;;2.80;95528.00;;;;8329316;28;20217;-73
2021/12/23 20:50:00;;;;;;;1999.90;629.77;;;;;2.90;95541.00;;;;8329623;28;20285;-74
2021/12/23 20:54:08;;;;;;;762.67;393.23;;;;;3.00;95535.00;;;;8329772;28;20235;-73
2021/12/23 20:58:14;;;;;;;326.37;181.00;;;;;3.00;95535.00;;;;8328912;28;20242;-73
2021/12/23 21:02:47;;;;;;;200.13;92.33;;;;;3.10;95537.00;;;;8329558;28;20219;-75
2021/12/23 21:07:24;;;;;;;78.77;26.97;;;;;3.10;95531.00;;;;8329088;28;20296;-74
2021/12/23 21:12:03;;;;;;;73.60;29.00;;;;;3.10;95535.00;;;;8329036;28;20553;-73
2021/12/23 21:16:37;;;;;;;65.13;24.13;;;;;3.20;95537.00;;;;8334413;28;20611;-74
2021/12/23 21:21:14;;;;;;;80.73;41.07;;;;;3.20;95539.00;;;;8328962;28;20245;-74
2021/12/23 21:25:51;;;;;;;62.30;19.70;;;;;3.10;95530.00;;;;8327988;28;20638;-74
2021/12/23 21:29:56;;;;;;;57.03;18.70;;;;;3.10;95543.00;;;;8328700;28;20246;-75
2021/12/23 21:34:30;;;;;;;49.37;17.23;;;;;3.10;95550.00;;;;8329088;28;20239;-76
2021/12/23 21:39:06;;;;;;;65.10;19.13;;;;;3.10;95545.00;;;;8328409;28;20231;-74
2021/12/23 21:43:11;;;;;;;52.13;17.47;;;;;3.10;95544.00;;;;8329400;28;20215;-75
2021/12/23 21:47:16;;;;;;;50.33;17.87;;;;;3.20;95545.00;;;;8328663;28;20222;-75
2021/12/23 21:51:50;;;;;;;44.53;15.30;;;;;3.20;95539.00;;;;8328771;28;20666;-76
2021/12/23 21:55:55;;;;;;;42.37;14.37;;;;;3.30;95533.00;;;;8328614;28;20218;-76
2021/12/23 22:00:30;;;;;;;47.33;15.87;;;;;3.40;95536.00;;;;8328986;28;20289;-77
2021/12/23 22:04:35;;;;;;;55.00;16.63;;;;;3.50;95536.00;;;;8325178;28;20234;-76
2021/12/23 22:09:08;;;;;;;47.07;15.97;;;;;3.50;95531.00;;;;8329174;28;20246;-76
2021/12/23 22:13:12;;;;;;;51.53;15.17;;;;;3.60;95524.00;;;;8328025;28;20273;-79
2021/12/23 22:17:16;;;;;;;57.20;16.60;;;;;3.60;95530.00;;;;8329068;28;20671;-78
2021/12/23 22:21:20;;;;;;;45.50;16.23;;;;;3.60;95532.00;;;;8328197;28;20244;-81
2021/12/23 22:25:24;;;;;;;41.77;14.70;;;;;3.60;95533.00;;;;8328410;28;20251;-80
2021/12/23 22:30:00;;;;;;;54.63;14.90;;;;;3.70;95518.00;;;;8328159;28;20234;-75
2021/12/23 22:34:07;;;;;;;49.33;15.30;;;;;3.70;95526.00;;;;8327823;28;20260;-80
2021/12/23 22:38:11;;;;;;;39.40;15.20;;;;;3.80;95515.00;;;;8328324;28;20216;-80
2021/12/23 22:42:14;;;;;;;39.43;13.90;;;;;3.70;95516.00;;;;8328163;28;20251;-81